sensor_id;sensor_type;location;lat;lon;timestamp;pressure;altitude;pressure_sealevel;temperature;humidity
54870;BME280;40756;-37.950;145.008;2024-03-02T00:02:18;101644.91;;;19.25;47.09
54870;BME280;40756;-37.950;145.008;2024-03-02T00:04:48;101643.90;;;18.77;46.62
54870;BME280;40756;-37.950;145.008;2024-03-02T00:07:18;101648.17;;;18.88;46.52
54870;BME280;40756;-37.950;145.008;2024-03-02T00:09:48;101640.03;;;18.80;45.38
54870;BME280;40756;-37.950;145.008;2024-03-02T00:12:17;101642.71;;;19.56;46.11
54870;BME280;40756;-37.950;145.008;2024-03-02T00:14:47;101643.68;;;19.23;44.48
54870;BME280;40756;-37.950;145.008;2024-03-02T00:17:21;101654.77;;;20.13;42.99
54870;BME280;40756;-37.950;145.008;2024-03-02T00:19:54;101658.73;;;20.11;41.27
54870;BME280;40756;-37.950;145.008;2024-03-02T00:22:25;101660.88;;;19.94;42.18
54870;BME280;40756;-37.950;145.008;2024-03-02T00:24:55;101662.80;;;19.82;43.24
54870;BME280;40756;-37.950;145.008;2024-03-02T00:27:25;101667.13;;;19.77;44.75
54870;BME280;40756;-37.950;145.008;2024-03-02T00:29:54;101667.68;;;20.01;44.38
54870;BME280;40756;-37.950;145.008;2024-03-02T00:32:23;101662.58;;;19.01;45.87
54870;BME280;40756;-37.950;145.008;2024-03-02T00:34:53;101669.08;;;19.32;45.41
54870;BME280;40756;-37.950;145.008;2024-03-02T00:37:22;101670.26;;;19.22;45.36
54870;BME280;40756;-37.950;145.008;2024-03-02T00:39:52;101674.10;;;18.10;46.62
54870;BME280;40756;-37.950;145.008;2024-03-02T00:42:21;101677.13;;;18.99;44.90
54870;BME280;40756;-37.950;145.008;2024-03-02T00:44:51;101672.34;;;19.11;44.18
54870;BME280;40756;-37.950;145.008;2024-03-02T00:47:20;101669.37;;;18.42;43.09
54870;BME280;40756;-37.950;145.008;2024-03-02T00:49:50;101662.36;;;18.76;44.19
54870;BME280;40756;-37.950;145.008;2024-03-02T00:52:19;101661.09;;;19.03;44.40
54870;BME280;40756;-37.950;145.008;2024-03-02T00:54:49;101655.38;;;18.89;43.66
54870;BME280;40756;-37.950;145.008;2024-03-02T00:57:18;101653.14;;;19.88;42.12
54870;BME280;40756;-37.950;145.008;2024-03-02T00:59:48;101653.13;;;19.22;43.81
54870;BME280;40756;-37.950;145.008;2024-03-02T01:02:17;101648.34;;;19.80;41.45
54870;BME280;40756;-37.950;145.008;2024-03-02T01:04:47;101646.60;;;19.92;41.53
54870;BME280;40756;-37.950;145.008;2024-03-02T01:07:16;101646.44;;;18.86;41.92
54870;BME280;40756;-37.950;145.008;2024-03-02T01:09:46;101642.70;;;18.91;42.94
54870;BME280;40756;-37.950;145.008;2024-03-02T01:12:15;101641.74;;;20.00;41.50
54870;BME280;40756;-37.950;145.008;2024-03-02T01:14:44;101635.67;;;19.03;41.22
54870;BME280;40756;-37.950;145.008;2024-03-02T01:17:14;101637.33;;;19.94;40.91
54870;BME280;40756;-37.950;145.008;2024-03-02T01:19:43;101626.81;;;19.62;39.76
54870;BME280;40756;-37.950;145.008;2024-03-02T01:22:13;101627.23;;;20.02;38.50
54870;BME280;40756;-37.950;145.008;2024-03-02T01:24:44;101621.12;;;20.28;38.04
54870;BME280;40756;-37.950;145.008;2024-03-02T01:27:13;101621.54;;;20.42;38.12
54870;BME280;40756;-37.950;145.008;2024-03-02T01:29:43;101618.60;;;20.28;38.75
54870;BME280;40756;-37.950;145.008;2024-03-02T01:32:12;101617.31;;;19.70;39.17
54870;BME280;40756;-37.950;145.008;2024-03-02T01:34:42;101606.70;;;21.03;37.55
54870;BME280;40756;-37.950;145.008;2024-03-02T01:37:11;101604.45;;;20.58;38.60
54870;BME280;40756;-37.950;145.008;2024-03-02T01:39:41;101609.61;;;19.89;38.20
54870;BME280;40756;-37.950;145.008;2024-03-02T01:42:11;101604.07;;;20.33;37.82
54870;BME280;40756;-37.950;145.008;2024-03-02T01:44:41;101602.42;;;21.20;36.58
54870;BME280;40756;-37.950;145.008;2024-03-02T01:47:10;101603.71;;;20.54;39.39
54870;BME280;40756;-37.950;145.008;2024-03-02T01:49:40;101603.89;;;20.30;37.43
54870;BME280;40756;-37.950;145.008;2024-03-02T01:52:09;101605.06;;;21.23;37.03
54870;BME280;40756;-37.950;145.008;2024-03-02T01:54:39;101599.11;;;21.38;36.26
54870;BME280;40756;-37.950;145.008;2024-03-02T01:57:08;101597.69;;;20.83;36.77
54870;BME280;40756;-37.950;145.008;2024-03-02T01:59:38;101594.82;;;20.56;38.06
54870;BME280;40756;-37.950;145.008;2024-03-02T02:02:07;101594.80;;;19.84;37.45
54870;BME280;40756;-37.950;145.008;2024-03-02T02:04:36;101596.76;;;20.27;37.48
54870;BME280;40756;-37.950;145.008;2024-03-02T02:07:06;101599.28;;;20.44;37.77
54870;BME280;40756;-37.950;145.008;2024-03-02T02:09:35;101595.24;;;20.66;37.17
54870;BME280;40756;-37.950;145.008;2024-03-02T02:12:05;101596.45;;;21.33;35.29
54870;BME280;40756;-37.950;145.008;2024-03-02T02:14:35;101600.64;;;21.71;35.18
54870;BME280;40756;-37.950;145.008;2024-03-02T02:17:05;101603.65;;;20.45;35.54
54870;BME280;40756;-37.950;145.008;2024-03-02T02:19:34;101610.50;;;21.59;34.61
54870;BME280;40756;-37.950;145.008;2024-03-02T02:22:03;101609.78;;;21.46;34.31
54870;BME280;40756;-37.950;145.008;2024-03-02T02:24:34;101618.59;;;20.63;34.41
54870;BME280;40756;-37.950;145.008;2024-03-02T02:27:04;101615.12;;;21.47;34.62
54870;BME280;40756;-37.950;145.008;2024-03-02T02:29:33;101617.94;;;21.16;35.63
54870;BME280;40756;-37.950;145.008;2024-03-02T02:32:03;101612.32;;;21.67;33.45
54870;BME280;40756;-37.950;145.008;2024-03-02T02:34:32;101604.48;;;20.76;34.69
54870;BME280;40756;-37.950;145.008;2024-03-02T02:37:01;101608.04;;;20.40;34.37
54870;BME280;40756;-37.950;145.008;2024-03-02T02:39:31;101605.13;;;21.30;33.26
54870;BME280;40756;-37.950;145.008;2024-03-02T02:42:00;101608.38;;;21.21;34.59
54870;BME280;40756;-37.950;145.008;2024-03-02T02:44:30;101610.34;;;21.84;33.65
54870;BME280;40756;-37.950;145.008;2024-03-02T02:46:59;101608.66;;;21.81;32.82
54870;BME280;40756;-37.950;145.008;2024-03-02T02:49:29;101610.18;;;21.55;32.43
54870;BME280;40756;-37.950;145.008;2024-03-02T02:51:58;101612.72;;;21.51;32.76
54870;BME280;40756;-37.950;145.008;2024-03-02T02:54:27;101615.57;;;21.33;32.45
54870;BME280;40756;-37.950;145.008;2024-03-02T02:56:57;101614.91;;;21.92;32.12
54870;BME280;40756;-37.950;145.008;2024-03-02T02:59:26;101619.12;;;22.14;31.19
54870;BME280;40756;-37.950;145.008;2024-03-02T03:01:56;101616.50;;;22.07;32.41
54870;BME280;40756;-37.950;145.008;2024-03-02T03:04:25;101622.00;;;22.45;31.41
54870;BME280;40756;-37.950;145.008;2024-03-02T03:06:55;101619.63;;;22.51;32.25
54870;BME280;40756;-37.950;145.008;2024-03-02T03:09:24;101621.66;;;22.99;33.44
54870;BME280;40756;-37.950;145.008;2024-03-02T03:11:53;101619.03;;;21.79;33.35
54870;BME280;40756;-37.950;145.008;2024-03-02T03:14:23;101619.21;;;21.09;34.60
54870;BME280;40756;-37.950;145.008;2024-03-02T03:16:52;101623.24;;;21.46;33.39
54870;BME280;40756;-37.950;145.008;2024-03-02T03:19:21;101624.71;;;22.14;33.18
54870;BME280;40756;-37.950;145.008;2024-03-02T03:21:51;101631.11;;;21.84;34.20
54870;BME280;40756;-37.950;145.008;2024-03-02T03:24:20;101616.39;;;22.06;33.65
54870;BME280;40756;-37.950;145.008;2024-03-02T03:26:50;101617.79;;;22.52;32.18
54870;BME280;40756;-37.950;145.008;2024-03-02T03:29:21;101615.77;;;22.79;31.47
54870;BME280;40756;-37.950;145.008;2024-03-02T03:31:50;101614.82;;;22.41;31.08
54870;BME280;40756;-37.950;145.008;2024-03-02T03:34:20;101607.58;;;22.62;31.46
54870;BME280;40756;-37.950;145.008;2024-03-02T03:36:49;101608.86;;;23.64;31.24
54870;BME280;40756;-37.950;145.008;2024-03-02T03:39:18;101610.45;;;22.26;32.15
54870;BME280;40756;-37.950;145.008;2024-03-02T03:41:48;101610.94;;;22.03;32.22
54870;BME280;40756;-37.950;145.008;2024-03-02T03:44:17;101608.12;;;22.37;31.82
54870;BME280;40756;-37.950;145.008;2024-03-02T03:46:47;101606.56;;;22.47;30.85
54870;BME280;40756;-37.950;145.008;2024-03-02T03:49:16;101613.51;;;22.62;31.66
54870;BME280;40756;-37.950;145.008;2024-03-02T03:51:45;101605.52;;;22.11;32.19
54870;BME280;40756;-37.950;145.008;2024-03-02T03:54:15;101603.75;;;22.99;32.13
54870;BME280;40756;-37.950;145.008;2024-03-02T03:56:44;101601.63;;;22.93;30.76
54870;BME280;40756;-37.950;145.008;2024-03-02T03:59:14;101601.31;;;22.90;30.78
54870;BME280;40756;-37.950;145.008;2024-03-02T04:01:43;101603.10;;;23.92;30.56
54870;BME280;40756;-37.950;145.008;2024-03-02T04:04:12;101601.28;;;21.67;31.48
54870;BME280;40756;-37.950;145.008;2024-03-02T04:06:42;101603.61;;;22.90;30.23
54870;BME280;40756;-37.950;145.008;2024-03-02T04:09:11;101604.73;;;22.05;32.11
54870;BME280;40756;-37.950;145.008;2024-03-02T04:11:41;101603.65;;;22.89;30.03
54870;BME280;40756;-37.950;145.008;2024-03-02T04:14:10;101600.69;;;22.50;30.10
54870;BME280;40756;-37.950;145.008;2024-03-02T04:16:39;101597.84;;;22.63;29.82
54870;BME280;40756;-37.950;145.008;2024-03-02T04:19:09;101600.89;;;22.73;29.59
54870;BME280;40756;-37.950;145.008;2024-03-02T04:21:38;101602.67;;;23.10;28.90
54870;BME280;40756;-37.950;145.008;2024-03-02T04:24:07;101602.82;;;23.53;28.93
54870;BME280;40756;-37.950;145.008;2024-03-02T04:26:37;101603.82;;;23.45;29.19
54870;BME280;40756;-37.950;145.008;2024-03-02T04:29:07;101612.20;;;23.03;30.10
54870;BME280;40756;-37.950;145.008;2024-03-02T04:31:37;101614.54;;;23.02;29.32
54870;BME280;40756;-37.950;145.008;2024-03-02T04:34:07;101613.42;;;23.74;28.57
54870;BME280;40756;-37.950;145.008;2024-03-02T04:36:36;101612.98;;;23.45;29.55
54870;BME280;40756;-37.950;145.008;2024-03-02T04:39:06;101613.52;;;22.84;28.64
54870;BME280;40756;-37.950;145.008;2024-03-02T04:41:35;101612.76;;;23.66;27.90
54870;BME280;40756;-37.950;145.008;2024-03-02T04:44:04;101614.92;;;23.94;27.22
54870;BME280;40756;-37.950;145.008;2024-03-02T04:46:34;101612.66;;;22.52;28.30
54870;BME280;40756;-37.950;145.008;2024-03-02T04:49:03;101608.41;;;22.40;29.37
54870;BME280;40756;-37.950;145.008;2024-03-02T04:51:32;101613.41;;;24.01;29.25
54870;BME280;40756;-37.950;145.008;2024-03-02T04:54:02;101607.71;;;23.05;29.82
54870;BME280;40756;-37.950;145.008;2024-03-02T04:56:31;101610.43;;;23.25;28.19
54870;BME280;40756;-37.950;145.008;2024-03-02T04:59:01;101605.27;;;22.48;28.54
54870;BME280;40756;-37.950;145.008;2024-03-02T05:01:30;101607.28;;;22.94;28.15
54870;BME280;40756;-37.950;145.008;2024-03-02T05:04:00;101604.27;;;22.73;28.31
54870;BME280;40756;-37.950;145.008;2024-03-02T05:06:30;101597.55;;;22.41;28.62
54870;BME280;40756;-37.950;145.008;2024-03-02T05:08:59;101593.23;;;21.88;29.01
54870;BME280;40756;-37.950;145.008;2024-03-02T05:11:29;101585.85;;;22.41;29.15
54870;BME280;40756;-37.950;145.008;2024-03-02T05:13:58;101594.07;;;21.23;29.23
54870;BME280;40756;-37.950;145.008;2024-03-02T05:16:28;101588.89;;;22.15;30.21
54870;BME280;40756;-37.950;145.008;2024-03-02T05:18:57;101586.45;;;22.79;30.11
54870;BME280;40756;-37.950;145.008;2024-03-02T05:21:26;101581.28;;;22.54;30.55
54870;BME280;40756;-37.950;145.008;2024-03-02T05:23:57;101579.66;;;21.73;31.26
54870;BME280;40756;-37.950;145.008;2024-03-02T05:26:26;101584.05;;;22.50;30.40
54870;BME280;40756;-37.950;145.008;2024-03-02T05:28:55;101585.34;;;23.69;29.28
54870;BME280;40756;-37.950;145.008;2024-03-02T05:31:25;101577.51;;;24.89;28.75
54870;BME280;40756;-37.950;145.008;2024-03-02T05:33:56;101578.21;;;22.95;29.59
54870;BME280;40756;-37.950;145.008;2024-03-02T05:36:25;101579.87;;;22.54;28.77
54870;BME280;40756;-37.950;145.008;2024-03-02T05:38:55;101587.58;;;22.93;28.95
54870;BME280;40756;-37.950;145.008;2024-03-02T05:41:24;101581.89;;;23.74;27.95
54870;BME280;40756;-37.950;145.008;2024-03-02T05:43:54;101584.26;;;23.50;28.60
54870;BME280;40756;-37.950;145.008;2024-03-02T05:46:23;101584.78;;;22.40;29.90
54870;BME280;40756;-37.950;145.008;2024-03-02T05:48:52;101585.69;;;24.03;29.46
54870;BME280;40756;-37.950;145.008;2024-03-02T05:51:22;101589.04;;;22.97;28.90
54870;BME280;40756;-37.950;145.008;2024-03-02T05:53:51;101589.50;;;23.87;28.74
54870;BME280;40756;-37.950;145.008;2024-03-02T05:56:21;101584.58;;;22.66;29.89
54870;BME280;40756;-37.950;145.008;2024-03-02T05:58:50;101586.14;;;22.42;29.99
54870;BME280;40756;-37.950;145.008;2024-03-02T06:01:20;101588.43;;;20.59;32.22
54870;BME280;40756;-37.950;145.008;2024-03-02T06:03:49;101586.12;;;21.52;31.24
54870;BME280;40756;-37.950;145.008;2024-03-02T06:06:18;101582.77;;;22.50;30.33
54870;BME280;40756;-37.950;145.008;2024-03-02T06:08:48;101592.39;;;23.17;29.49
54870;BME280;40756;-37.950;145.008;2024-03-02T06:11:18;101590.97;;;22.45;29.06
54870;BME280;40756;-37.950;145.008;2024-03-02T06:13:48;101584.87;;;22.28;31.09
54870;BME280;40756;-37.950;145.008;2024-03-02T06:16:17;101580.96;;;22.93;29.37
54870;BME280;40756;-37.950;145.008;2024-03-02T06:18:46;101583.54;;;22.82;29.35
54870;BME280;40756;-37.950;145.008;2024-03-02T06:21:16;101582.11;;;22.97;29.46
54870;BME280;40756;-37.950;145.008;2024-03-02T06:23:45;101580.68;;;22.04;29.64
54870;BME280;40756;-37.950;145.008;2024-03-02T06:26:15;101578.84;;;23.15;28.91
54870;BME280;40756;-37.950;145.008;2024-03-02T06:28:44;101572.46;;;23.67;28.49
54870;BME280;40756;-37.950;145.008;2024-03-02T06:31:14;101571.96;;;23.41;28.23
54870;BME280;40756;-37.950;145.008;2024-03-02T06:33:44;101567.83;;;23.29;28.14
54870;BME280;40756;-37.950;145.008;2024-03-02T06:36:14;101568.00;;;22.47;30.09
54870;BME280;40756;-37.950;145.008;2024-03-02T06:38:44;101568.57;;;23.18;29.95
54870;BME280;40756;-37.950;145.008;2024-03-02T06:41:13;101564.26;;;23.28;28.84
54870;BME280;40756;-37.950;145.008;2024-03-02T06:43:42;101567.02;;;22.95;29.75
54870;BME280;40756;-37.950;145.008;2024-03-02T06:46:12;101565.58;;;22.59;30.01
54870;BME280;40756;-37.950;145.008;2024-03-02T06:48:41;101563.24;;;21.90;29.21
54870;BME280;40756;-37.950;145.008;2024-03-02T06:51:11;101561.78;;;22.68;29.14
54870;BME280;40756;-37.950;145.008;2024-03-02T06:53:40;101564.85;;;21.73;29.99
54870;BME280;40756;-37.950;145.008;2024-03-02T06:56:10;101560.34;;;21.43;30.92
54870;BME280;40756;-37.950;145.008;2024-03-02T06:58:39;101556.16;;;22.30;30.14
54870;BME280;40756;-37.950;145.008;2024-03-02T07:01:09;101559.31;;;21.85;30.57
54870;BME280;40756;-37.950;145.008;2024-03-02T07:03:38;101552.12;;;21.64;31.51
54870;BME280;40756;-37.950;145.008;2024-03-02T07:06:08;101550.44;;;21.45;31.18
54870;BME280;40756;-37.950;145.008;2024-03-02T07:08:37;101544.08;;;21.98;31.27
54870;BME280;40756;-37.950;145.008;2024-03-02T07:11:07;101539.75;;;21.83;32.16
54870;BME280;40756;-37.950;145.008;2024-03-02T07:13:36;101535.89;;;22.20;31.43
54870;BME280;40756;-37.950;145.008;2024-03-02T07:16:06;101535.46;;;21.77;32.28
54870;BME280;40756;-37.950;145.008;2024-03-02T07:18:35;101533.69;;;21.61;31.63
54870;BME280;40756;-37.950;145.008;2024-03-02T07:21:05;101534.82;;;21.00;32.51
54870;BME280;40756;-37.950;145.008;2024-03-02T07:23:35;101539.32;;;20.83;33.35
54870;BME280;40756;-37.950;145.008;2024-03-02T07:26:05;101536.10;;;20.84;34.22
54870;BME280;40756;-37.950;145.008;2024-03-02T07:28:34;101538.26;;;21.68;33.99
54870;BME280;40756;-37.950;145.008;2024-03-02T07:31:04;101535.29;;;21.10;33.77
54870;BME280;40756;-37.950;145.008;2024-03-02T07:33:34;101538.22;;;21.42;33.18
54870;BME280;40756;-37.950;145.008;2024-03-02T07:36:05;101537.09;;;21.61;32.64
54870;BME280;40756;-37.950;145.008;2024-03-02T07:38:35;101533.72;;;21.01;33.66
54870;BME280;40756;-37.950;145.008;2024-03-02T07:41:04;101537.31;;;21.04;33.18
54870;BME280;40756;-37.950;145.008;2024-03-02T07:43:34;101541.97;;;21.51;33.76
54870;BME280;40756;-37.950;145.008;2024-03-02T07:46:04;101543.36;;;20.41;33.85
54870;BME280;40756;-37.950;145.008;2024-03-02T07:48:33;101541.50;;;20.97;33.23
54870;BME280;40756;-37.950;145.008;2024-03-02T07:51:03;101541.51;;;21.27;33.74
54870;BME280;40756;-37.950;145.008;2024-03-02T07:53:32;101544.49;;;21.01;34.34
54870;BME280;40756;-37.950;145.008;2024-03-02T07:56:02;101549.04;;;21.06;33.90
54870;BME280;40756;-37.950;145.008;2024-03-02T07:58:31;101548.44;;;21.59;33.22
54870;BME280;40756;-37.950;145.008;2024-03-02T08:01:06;101546.98;;;21.19;33.92
54870;BME280;40756;-37.950;145.008;2024-03-02T08:03:35;101550.48;;;20.09;34.76
54870;BME280;40756;-37.950;145.008;2024-03-02T08:06:06;101549.46;;;20.52;34.63
54870;BME280;40756;-37.950;145.008;2024-03-02T08:08:35;101552.28;;;20.41;35.22
54870;BME280;40756;-37.950;145.008;2024-03-02T08:11:05;101554.21;;;19.81;36.05
54870;BME280;40756;-37.950;145.008;2024-03-02T08:13:34;101555.14;;;20.78;34.57
54870;BME280;40756;-37.950;145.008;2024-03-02T08:16:04;101556.41;;;20.12;34.86
54870;BME280;40756;-37.950;145.008;2024-03-02T08:18:34;101560.09;;;19.55;36.15
54870;BME280;40756;-37.950;145.008;2024-03-02T08:21:04;101557.93;;;20.25;35.45
54870;BME280;40756;-37.950;145.008;2024-03-02T08:23:33;101556.83;;;20.05;36.10
54870;BME280;40756;-37.950;145.008;2024-03-02T08:26:03;101564.69;;;19.23;37.23
54870;BME280;40756;-37.950;145.008;2024-03-02T08:28:32;101567.14;;;19.38;37.65
54870;BME280;40756;-37.950;145.008;2024-03-02T08:31:02;101564.75;;;20.13;36.67
54870;BME280;40756;-37.950;145.008;2024-03-02T08:33:32;101565.74;;;20.18;36.74
54870;BME280;40756;-37.950;145.008;2024-03-02T08:36:01;101571.49;;;19.06;37.89
54870;BME280;40756;-37.950;145.008;2024-03-02T08:38:31;101572.80;;;19.51;37.17
54870;BME280;40756;-37.950;145.008;2024-03-02T08:41:02;101576.55;;;19.35;37.79
54870;BME280;40756;-37.950;145.008;2024-03-02T08:43:32;101576.06;;;19.86;37.58
54870;BME280;40756;-37.950;145.008;2024-03-02T08:46:02;101579.56;;;19.59;37.57
54870;BME280;40756;-37.950;145.008;2024-03-02T08:48:31;101581.82;;;19.72;37.45
54870;BME280;40756;-37.950;145.008;2024-03-02T08:51:01;101580.86;;;19.91;38.44
54870;BME280;40756;-37.950;145.008;2024-03-02T08:53:31;101582.33;;;19.85;37.94
54870;BME280;40756;-37.950;145.008;2024-03-02T08:56:01;101583.85;;;19.46;38.74
54870;BME280;40756;-37.950;145.008;2024-03-02T08:58:31;101584.56;;;20.12;37.14
54870;BME280;40756;-37.950;145.008;2024-03-02T09:01:01;101585.90;;;18.84;38.60
54870;BME280;40756;-37.950;145.008;2024-03-02T09:03:30;101587.39;;;19.70;37.34
54870;BME280;40756;-37.950;145.008;2024-03-02T09:06:00;101594.72;;;18.41;39.13
54870;BME280;40756;-37.950;145.008;2024-03-02T09:08:29;101598.56;;;18.03;40.35
54870;BME280;40756;-37.950;145.008;2024-03-02T09:10:59;101598.29;;;18.75;39.82
54870;BME280;40756;-37.950;145.008;2024-03-02T09:13:28;101601.76;;;18.47;40.00
54870;BME280;40756;-37.950;145.008;2024-03-02T09:15:58;101601.20;;;18.66;39.33
54870;BME280;40756;-37.950;145.008;2024-03-02T09:18:27;101600.43;;;18.62;39.60
54870;BME280;40756;-37.950;145.008;2024-03-02T09:20:57;101604.27;;;18.97;38.68
54870;BME280;40756;-37.950;145.008;2024-03-02T09:23:26;101608.44;;;17.94;40.05
54870;BME280;40756;-37.950;145.008;2024-03-02T09:25:56;101609.90;;;18.38;39.87
54870;BME280;40756;-37.950;145.008;2024-03-02T09:28:25;101612.88;;;17.75;41.33
54870;BME280;40756;-37.950;145.008;2024-03-02T09:30:55;101614.74;;;18.58;40.63
54870;BME280;40756;-37.950;145.008;2024-03-02T09:33:24;101615.56;;;18.40;40.19
54870;BME280;40756;-37.950;145.008;2024-03-02T09:35:54;101616.68;;;18.26;40.27
54870;BME280;40756;-37.950;145.008;2024-03-02T09:38:23;101623.31;;;19.00;39.54
54870;BME280;40756;-37.950;145.008;2024-03-02T09:40:54;101619.53;;;18.35;39.78
54870;BME280;40756;-37.950;145.008;2024-03-02T09:43:24;101618.56;;;18.68;39.33
54870;BME280;40756;-37.950;145.008;2024-03-02T09:45:54;101621.61;;;18.82;39.28
54870;BME280;40756;-37.950;145.008;2024-03-02T09:48:23;101624.93;;;18.59;39.52
54870;BME280;40756;-37.950;145.008;2024-03-02T09:50:53;101623.29;;;18.70;39.46
54870;BME280;40756;-37.950;145.008;2024-03-02T09:53:23;101628.65;;;18.04;40.03
54870;BME280;40756;-37.950;145.008;2024-03-02T09:55:55;101627.36;;;17.55;40.83
54870;BME280;40756;-37.950;145.008;2024-03-02T09:58:24;101623.97;;;17.73;40.68
54870;BME280;40756;-37.950;145.008;2024-03-02T10:00:53;101624.20;;;18.41;40.04
54870;BME280;40756;-37.950;145.008;2024-03-02T10:03:23;101626.02;;;18.44;39.94
54870;BME280;40756;-37.950;145.008;2024-03-02T10:05:53;101622.24;;;17.54;41.00
54870;BME280;40756;-37.950;145.008;2024-03-02T10:08:23;101621.48;;;18.01;40.51
54870;BME280;40756;-37.950;145.008;2024-03-02T10:10:53;101622.20;;;18.23;40.45
54870;BME280;40756;-37.950;145.008;2024-03-02T10:13:26;101628.43;;;17.70;40.69
54870;BME280;40756;-37.950;145.008;2024-03-02T10:15:55;101628.82;;;17.39;40.94
54870;BME280;40756;-37.950;145.008;2024-03-02T10:18:28;101629.98;;;18.15;40.11
54870;BME280;40756;-37.950;145.008;2024-03-02T10:21:14;101629.71;;;18.38;39.85
54870;BME280;40756;-37.950;145.008;2024-03-02T10:23:43;101629.63;;;18.72;39.84
54870;BME280;40756;-37.950;145.008;2024-03-02T10:26:17;101633.47;;;17.46;41.94
54870;BME280;40756;-37.950;145.008;2024-03-02T10:28:48;101639.47;;;18.09;41.14
54870;BME280;40756;-37.950;145.008;2024-03-02T10:31:17;101640.40;;;18.39;40.87
54870;BME280;40756;-37.950;145.008;2024-03-02T10:33:48;101642.74;;;18.52;40.28
54870;BME280;40756;-37.950;145.008;2024-03-02T10:36:17;101643.50;;;17.88;41.10
54870;BME280;40756;-37.950;145.008;2024-03-02T10:38:47;101644.05;;;18.33;40.41
54870;BME280;40756;-37.950;145.008;2024-03-02T10:41:19;101643.56;;;16.88;42.42
54870;BME280;40756;-37.950;145.008;2024-03-02T10:43:53;101646.32;;;17.90;42.09
54870;BME280;40756;-37.950;145.008;2024-03-02T10:46:26;101647.12;;;18.10;40.98
54870;BME280;40756;-37.950;145.008;2024-03-02T10:48:58;101644.66;;;17.81;41.43
54870;BME280;40756;-37.950;145.008;2024-03-02T10:51:29;101648.49;;;18.41;40.64
54870;BME280;40756;-37.950;145.008;2024-03-02T10:54:00;101654.26;;;18.35;40.68
54870;BME280;40756;-37.950;145.008;2024-03-02T10:56:31;101656.27;;;18.43;40.52
54870;BME280;40756;-37.950;145.008;2024-03-02T10:59:06;101656.48;;;17.79;41.52
54870;BME280;40756;-37.950;145.008;2024-03-02T11:01:43;101652.81;;;18.22;40.87
54870;BME280;40756;-37.950;145.008;2024-03-02T11:04:15;101648.87;;;17.95;41.27
54870;BME280;40756;-37.950;145.008;2024-03-02T11:06:48;101647.38;;;17.83;41.23
54870;BME280;40756;-37.950;145.008;2024-03-02T11:09:21;101644.58;;;17.66;41.64
54870;BME280;40756;-37.950;145.008;2024-03-02T11:11:59;101642.25;;;17.84;41.75
54870;BME280;40756;-37.950;145.008;2024-03-02T11:14:31;101642.67;;;17.28;42.10
54870;BME280;40756;-37.950;145.008;2024-03-02T11:17:03;101638.24;;;17.73;41.96
54870;BME280;40756;-37.950;145.008;2024-03-02T11:19:34;101638.82;;;17.34;42.25
54870;BME280;40756;-37.950;145.008;2024-03-02T11:22:05;101634.03;;;16.74;42.49
54870;BME280;40756;-37.950;145.008;2024-03-02T11:24:34;101634.29;;;17.67;42.08
54870;BME280;40756;-37.950;145.008;2024-03-02T11:27:05;101628.27;;;17.56;42.26
54870;BME280;40756;-37.950;145.008;2024-03-02T11:29:51;101623.56;;;17.23;42.30
54870;BME280;40756;-37.950;145.008;2024-03-02T11:32:22;101621.29;;;17.70;41.95
54870;BME280;40756;-37.950;145.008;2024-03-02T11:34:53;101623.49;;;17.18;42.39
54870;BME280;40756;-37.950;145.008;2024-03-02T11:37:22;101623.51;;;17.69;41.69
54870;BME280;40756;-37.950;145.008;2024-03-02T11:39:53;101623.49;;;17.24;42.13
54870;BME280;40756;-37.950;145.008;2024-03-02T11:42:23;101618.73;;;17.06;42.27
54870;BME280;40756;-37.950;145.008;2024-03-02T11:44:57;101617.12;;;16.41;43.24
54870;BME280;40756;-37.950;145.008;2024-03-02T11:47:32;101618.02;;;16.42;43.50
54870;BME280;40756;-37.950;145.008;2024-03-02T11:50:02;101610.41;;;16.96;42.97
54870;BME280;40756;-37.950;145.008;2024-03-02T11:52:31;101606.74;;;17.02;42.73
54870;BME280;40756;-37.950;145.008;2024-03-02T11:55:03;101605.25;;;16.93;42.79
54870;BME280;40756;-37.950;145.008;2024-03-02T11:57:34;101601.21;;;16.84;42.84
54870;BME280;40756;-37.950;145.008;2024-03-02T12:00:05;101598.55;;;17.12;42.52
54870;BME280;40756;-37.950;145.008;2024-03-02T12:02:35;101595.63;;;17.01;42.49
54870;BME280;40756;-37.950;145.008;2024-03-02T12:05:05;101592.47;;;17.16;42.52
54870;BME280;40756;-37.950;145.008;2024-03-02T12:07:35;101588.91;;;16.41;43.13
54870;BME280;40756;-37.950;145.008;2024-03-02T12:10:06;101590.01;;;17.31;42.76
54870;BME280;40756;-37.950;145.008;2024-03-02T12:12:35;101591.44;;;16.91;42.77
54870;BME280;40756;-37.950;145.008;2024-03-02T12:15:05;101590.05;;;16.67;42.97
54870;BME280;40756;-37.950;145.008;2024-03-02T12:17:35;101588.59;;;17.15;42.32
54870;BME280;40756;-37.950;145.008;2024-03-02T12:20:06;101586.05;;;16.36;42.73
54870;BME280;40756;-37.950;145.008;2024-03-02T12:22:36;101580.87;;;17.13;43.47
54870;BME280;40756;-37.950;145.008;2024-03-02T12:25:05;101582.40;;;17.64;42.05
54870;BME280;40756;-37.950;145.008;2024-03-02T12:27:35;101583.09;;;17.23;42.08
54870;BME280;40756;-37.950;145.008;2024-03-02T12:30:05;101583.33;;;17.09;42.36
54870;BME280;40756;-37.950;145.008;2024-03-02T12:32:35;101583.12;;;17.08;42.15
54870;BME280;40756;-37.950;145.008;2024-03-02T12:35:06;101583.33;;;16.75;42.55